WetterOnline ( http://www.wetteronline.de )

Wetter aktuell Bonn

Aktuelles Wetter: Roleber (162m)

6-stündlich | Neueste Meldungen
Ortszeit Temperatur Wetter
Di, 17.07. 8:00 20.0° C wolkig
Di, 17.07. 2:00 16.8° C leicht bewölkt
Mo, 16.07. 20:00 27.7° C leicht bewölkt
Mo, 16.07. 14:00 27.2° C wolkenlos
Mo, 16.07. 8:00 18.7° C wolkenlos
Mo, 16.07. 2:00 16.0° C leicht bewölkt
So, 15.07. 20:00 26.5° C wolkenlos
So, 15.07. 14:00 26.5° C fast wolkenlos
Ortszeit Temperatur Wetter
Di, 17.07. 13:30 27.5° C wolkenlos
Di, 17.07. 13:20 27.5° C wolkenlos
Di, 17.07. 13:10 26.7° C fast wolkenlos
Di, 17.07. 13:00 26.6° C wolkig
Di, 17.07. 12:50 26.6° C wolkig
Di, 17.07. 12:40 26.9° C bedeckt
Di, 17.07. 12:30 24.9° C wolkig
Di, 17.07. 12:00 25.6° C wolkig
Di, 17.07. 11:30 24.6° C wolkig
Di, 17.07. 11:00 24.1° C bewölkt
Di, 17.07. 10:30 22.8° C bewölkt
Ortszeit Relative Feuchte Sichtweite
Di, 17.07. 8:00 60% 30 km
Di, 17.07. 2:00 63% 45 km
Mo, 16.07. 20:00 24% 70 km
Mo, 16.07. 14:00 33% 35 km
Mo, 16.07. 8:00 64% 40 km
Mo, 16.07. 2:00 64% 70 km
So, 15.07. 20:00 31% 70 km
So, 15.07. 14:00 35% 50 km
Ortszeit Relative Feuchte Sichtweite
Di, 17.07. 13:30 39% 30 km
Di, 17.07. 13:20 39% -
Di, 17.07. 13:10 38% -
Di, 17.07. 13:00 42% 26 km
Di, 17.07. 12:50 42% -
Di, 17.07. 12:40 42% -
Di, 17.07. 12:30 46% 35 km
Di, 17.07. 12:00 44% 24 km
Di, 17.07. 11:30 48% 24 km
Di, 17.07. 11:00 49% 26 km
Di, 17.07. 10:30 52% 30 km
Ortszeit Niederschlagsmenge Niederschlagsart
Di, 17.07. 8:00 0.1 l/m2 in 12 Std. Sprühregen
Di, 17.07. 2:00 0.0 l/m2 in 6 Std. -
Mo, 16.07. 20:00 0.0 l/m2 in 12 Std. -
Mo, 16.07. 14:00 0.0 l/m2 in 6 Std. -
Mo, 16.07. 8:00 0.0 l/m2 in 12 Std. -
Mo, 16.07. 2:00 0.0 l/m2 in 6 Std. -
So, 15.07. 20:00 0.0 l/m2 in 12 Std. -
So, 15.07. 14:00 0.0 l/m2 in 6 Std. -
Ortszeit Niederschlagsmenge Niederschlagsart
Di, 17.07. 13:30 0.0 l/m2 in 1 Std. -
Di, 17.07. 13:20 keine Meldung -
Di, 17.07. 13:10 keine Meldung -
Di, 17.07. 13:00 0.0 l/m2 in 1 Std. -
Di, 17.07. 12:50 keine Meldung -
Di, 17.07. 12:40 keine Meldung -
Di, 17.07. 12:30 0.0 l/m2 in 1 Std. -
Di, 17.07. 12:00 0.0 l/m2 in 1 Std. -
Di, 17.07. 11:30 0.0 l/m2 in 1 Std. -
Di, 17.07. 11:00 0.0 l/m2 in 1 Std. -
Di, 17.07. 10:30 0.0 l/m2 in 1 Std. -
Ortszeit Stärke Spitze Richtung
km/h Bft. km/h Grad Sektor
Di, 17.07. 8:00 0 0 11 - -
Di, 17.07. 2:00 4 1 14 110° O
Mo, 16.07. 20:00 7 2 25 330° NW
Mo, 16.07. 14:00 7 2 17 330° NW
Mo, 16.07. 8:00 4 1 7 140° SO
Mo, 16.07. 2:00 4 1 22 60° NO
So, 15.07. 20:00 7 2 22 360° N
So, 15.07. 14:00 7 2 22 20° N
Ortszeit Stärke Spitze Richtung
km/h Bft. km/h Grad Sektor
Di, 17.07. 13:30 9 2 24 310° NW
Di, 17.07. 13:20 9 2 - 310° NW
Di, 17.07. 13:10 11 2 - 320° NW
Di, 17.07. 13:00 13 3 24 290° W
Di, 17.07. 12:50 13 3 - 290° W
Di, 17.07. 12:40 9 2 - 290° W
Di, 17.07. 12:30 9 2 20 300° NW
Di, 17.07. 12:00 7 2 18 300° NW
Di, 17.07. 11:30 9 2 19 290° W
Di, 17.07. 11:00 9 2 20 320° NW
Di, 17.07. 10:30 9 2 17 290° W
Ortszeit Untergrenze Bedeckung Gattung
total tief tief mittel hoch
Di, 17.07. 8:00 8100 m 8/8 0/8 - - -
Di, 17.07. 2:00 4800 m 5/8 3/8 - - -
Mo, 16.07. 20:00 7200 m 8/8 0/8 - - -
Mo, 16.07. 14:00 - 0/8 0/8 - - -
Mo, 16.07. 8:00 - 0/8 0/8 - - -
Mo, 16.07. 2:00 2700 m 2/8 2/8 - - -
So, 15.07. 20:00 - 0/8 0/8 - - -
So, 15.07. 14:00 2700 m 1/8 1/8 - - -
Ortszeit Bedeckungsgrad in Achtel und Wolkenuntergrenze
Di, 17.07. 13:30 keine Wolken
Di, 17.07. 13:20 keine Wolken
Di, 17.07. 13:10 1(3300m)
Di, 17.07. 13:00 6(3600m)
Di, 17.07. 12:50 6(3600m)
Di, 17.07. 12:40 8(3600m)
Di, 17.07. 12:30 5(3600m) 6(4500m) 6(10500m)
Di, 17.07. 12:00 4(4500m) 7(9000m) 8(10500m)
Di, 17.07. 11:30 2(3300m) 8(9000m) 8(10500m)
Di, 17.07. 11:00 3(3600m) 7(4500m) 7(9000m)
Di, 17.07. 10:30 6(3600m) 8(9000m) 7(9000m)
Ortszeit Luftdruck NN (hPa) Tendenz (hPa in 3 Std.)
Di, 17.07. 8:00 1014 + 1,4
Di, 17.07. 2:00 1013 + 0,7
Mo, 16.07. 20:00 1011 - 0,3
Mo, 16.07. 14:00 1012 - 0,7
Mo, 16.07. 8:00 1014 - 0,2
Mo, 16.07. 2:00 1015 - 0,2
So, 15.07. 20:00 1013 - 0,6
So, 15.07. 14:00 1016 - 1,1
Ortszeit Luftdruck NN (hPa) Tendenz (hPa in 3 Std.)
Di, 17.07. 13:30 1015 + 0,2
Di, 17.07. 13:20 1015 keine Meldung
Di, 17.07. 13:10 1015 keine Meldung
Di, 17.07. 13:00 1015 + 0,5
Di, 17.07. 12:50 1015 keine Meldung
Di, 17.07. 12:40 1015 keine Meldung
Di, 17.07. 12:30 1015 + 0,5
Di, 17.07. 12:00 1015 + 0,7
Di, 17.07. 11:30 1015 + 0,7
Di, 17.07. 11:00 1015 + 0,6
Di, 17.07. 10:30 1015 + 0,8
Ortszeit Schneehöhe (cm)
Di, 17.07. 8:00 -
Di, 17.07. 2:00 -
Mo, 16.07. 20:00 -
Mo, 16.07. 14:00 -
Mo, 16.07. 8:00 -
Mo, 16.07. 2:00 -
So, 15.07. 20:00 -
So, 15.07. 14:00 -
Ortszeit Schneehöhe (cm)
Di, 17.07. 13:30 -
Di, 17.07. 13:20 -
Di, 17.07. 13:10 -
Di, 17.07. 13:00 -
Di, 17.07. 12:50 -
Di, 17.07. 12:40 -
Di, 17.07. 12:30 -
Di, 17.07. 12:00 -
Di, 17.07. 11:30 -
Di, 17.07. 11:00 -
Di, 17.07. 10:30 -
Link zu dieser Seite / Seite empfehlen

Das Wetter in ...